Terminal Aerodrome Forecast
Issued by NWS

Home | Current Version | Previous Version | Text Only | Print | Product List | Glossary On
Versions: 1 2 3 4 5 6 7 8 9 10 11 12
000
FTUS42 TJSJ 291139
TAFJBQ
TAF
TJBQ 291139Z 2912/3012 09006KT P6SM SCT030 SCT080
     FM291400 10013KT P6SM SCT025 SCT120
     FM291800 VRB15G22KT P6SM VCTS BKN022CB OVC040
      AMD NOT SKED 3002/3011=

USA.gov is the U.S. government's official web portal to all federal, state and local government web resources and services.